createdAt,value
2022-09-11T00:00:52.903Z,35.75
2022-09-11T00:05:56.370Z,30.02
2022-09-11T00:11:07.622Z,33.90
2022-09-11T00:16:21.708Z,35.90
2022-09-11T00:21:26.360Z,33.85
2022-09-11T00:26:31.183Z,38.78
2022-09-11T00:31:34.939Z,36.25
2022-09-11T00:36:41.653Z,38.70
2022-09-11T00:41:46.679Z,34.80
2022-09-11T00:46:53.215Z,35.40
2022-09-11T00:52:01.872Z,33.88
2022-09-11T00:57:09.497Z,35.33
2022-09-11T01:02:16.409Z,36.40
2022-09-11T01:07:22.825Z,40.53
2022-09-11T01:12:36.446Z,34.13
2022-09-11T01:17:51.221Z,35.80
2022-09-11T01:23:20.499Z,33.17
2022-09-11T01:28:33.708Z,36.50
2022-09-11T01:33:43.433Z,37.03
2022-09-11T01:38:52.673Z,28.10
2022-09-11T01:44:03.820Z,35.08
2022-09-11T01:49:12.345Z,28.98
2022-09-11T01:54:19.226Z,34.33
2022-09-11T01:59:27.989Z,26.73
2022-09-11T02:04:36.227Z,30.92
2022-09-11T02:09:46.163Z,23.92
2022-09-11T02:14:53.322Z,27.50
2022-09-11T02:20:00.228Z,21.48
2022-09-11T02:25:04.007Z,27.38
2022-09-11T02:30:11.669Z,37.25
2022-09-11T02:35:16.432Z,27.25
2022-09-11T02:40:38.065Z,27.02
2022-09-11T02:45:54.990Z,28.08
2022-09-11T02:51:08.655Z,27.70
2022-09-11T02:56:18.246Z,22.23
2022-09-11T03:01:23.722Z,29.40
2022-09-11T03:06:28.649Z,32.90
2022-09-11T03:11:32.395Z,31.48
2022-09-11T03:16:37.850Z,32.13
2022-09-11T03:21:41.854Z,30.58
2022-09-11T03:26:45.606Z,30.33
2022-09-11T03:31:51.435Z,25.83
2022-09-11T03:36:55.129Z,28.08
2022-09-11T03:41:59.378Z,32.50
2022-09-11T03:47:05.633Z,26.95
2022-09-11T03:52:09.163Z,28.27
2022-09-11T03:57:13.075Z,32.25
2022-09-11T04:02:18.541Z,28.80
2022-09-11T04:07:22.515Z,30.88
2022-09-11T04:12:26.649Z,33.83
2022-09-11T04:17:31.985Z,28.25
2022-09-11T04:22:35.636Z,40.33
2022-09-11T04:27:39.607Z,26.30
2022-09-11T04:32:46.891Z,24.95
2022-09-11T04:37:50.704Z,24.75
2022-09-11T04:42:54.090Z,24.70
2022-09-11T04:47:59.208Z,26.63
2022-09-11T04:53:03.082Z,31.33
2022-09-11T04:58:07.920Z,21.63
2022-09-11T05:03:12.852Z,25.33
2022-09-11T05:08:18.899Z,32.95
2022-09-11T05:13:24.286Z,25.42
2022-09-11T05:18:29.489Z,24.40
2022-09-11T05:23:34.288Z,51.83
2022-09-11T05:28:39.120Z,16.70
2022-09-11T05:33:44.991Z,17.55
2022-09-11T05:38:48.838Z,35.28
2022-09-11T05:43:52.957Z,29.83
2022-09-11T05:48:59.065Z,23.48
2022-09-11T05:54:04.655Z,20.88
2022-09-11T05:59:14.660Z,20.33
2022-09-11T06:04:21.606Z,34.35
2022-09-11T06:09:27.943Z,32.33
2022-09-11T06:14:32.093Z,30.50
2022-09-11T06:19:37.836Z,26.02
2022-09-11T06:24:42.058Z,19.25
2022-09-11T06:29:45.919Z,19.35
2022-09-11T06:34:50.687Z,27.17
2022-09-11T06:39:54.322Z,31.63
2022-09-11T06:45:02.735Z,54.50
2022-09-11T06:50:09.537Z,18.67
2022-09-11T06:55:19.949Z,37.92
2022-09-11T07:00:31.089Z,39.90
2022-09-11T07:05:35.866Z,70.40
2022-09-11T07:10:39.426Z,24.27
2022-09-11T07:15:43.454Z,23.17
2022-09-11T07:20:49.616Z,35.30
2022-09-11T07:25:54.107Z,41.85
2022-09-11T07:31:05.866Z,34.80
2022-09-11T07:36:12.966Z,24.80
2022-09-11T07:41:22.589Z,29.02
2022-09-11T07:46:31.135Z,20.20
2022-09-11T07:51:40.441Z,29.20
2022-09-11T07:56:44.286Z,30.02
2022-09-11T08:01:50.269Z,31.02
2022-09-11T08:06:55.439Z,27.50
2022-09-11T08:12:04.807Z,22.67
2022-09-11T08:17:11.684Z,26.95
2022-09-11T08:22:18.203Z,27.13
2022-09-11T08:27:24.360Z,24.52
2022-09-11T08:32:29.446Z,27.65
2022-09-11T08:37:35.963Z,30.52
2022-09-11T08:42:42.870Z,31.02
2022-09-11T08:47:50.413Z,30.67
2022-09-11T08:52:56.681Z,31.35
2022-09-11T08:58:12.313Z,27.17
2022-09-11T09:03:35.913Z,28.80
2022-09-11T09:08:54.320Z,32.08
2022-09-11T09:14:18.923Z,39.00
2022-09-11T09:19:28.250Z,35.50
2022-09-11T09:24:41.329Z,33.10
2022-09-11T09:29:47.953Z,31.75
2022-09-11T09:34:56.499Z,34.75
2022-09-11T09:40:11.247Z,36.83
2022-09-11T09:45:38.488Z,31.10
2022-09-11T09:50:44.823Z,33.83
2022-09-11T09:55:52.056Z,33.67
2022-09-11T10:00:55.723Z,30.73
2022-09-11T10:06:00.339Z,32.85
2022-09-11T10:11:07.119Z,27.35
2022-09-11T10:16:21.500Z,21.73
2022-09-11T10:21:29.483Z,24.85
2022-09-11T10:26:39.149Z,18.48
2022-09-11T10:31:50.961Z,21.73
2022-09-11T10:36:56.276Z,18.42
2022-09-11T10:42:10.642Z,18.33
2022-09-11T10:47:18.416Z,17.13
2022-09-11T10:52:23.290Z,15.65
2022-09-11T10:57:35.709Z,16.90
2022-09-11T11:02:42.427Z,13.50
2022-09-11T11:08:00.351Z,17.58
2022-09-11T11:13:16.818Z,14.10
2022-09-11T11:18:32.969Z,12.70
2022-09-11T11:23:51.180Z,17.08
2022-09-11T11:29:23.699Z,12.57
2022-09-11T11:34:40.148Z,16.08
2022-09-11T11:39:51.193Z,13.10
2022-09-11T11:50:12.458Z,14.23
2022-09-11T11:55:20.801Z,13.57
2022-09-11T12:00:27.473Z,9.85
2022-09-11T12:05:33.953Z,9.45
2022-09-11T12:10:39.693Z,10.20
2022-09-11T12:16:02.683Z,8.98
2022-09-11T12:21:35.209Z,10.65
2022-09-11T12:26:38.728Z,11.88
2022-09-11T12:32:15.472Z,8.85
2022-09-11T12:37:28.536Z,8.23
2022-09-11T12:42:55.949Z,13.73
2022-09-11T12:48:07.250Z,11.10
2022-09-11T12:53:19.432Z,14.15
2022-09-11T12:58:31.126Z,11.45
2022-09-11T13:03:35.555Z,10.35
2022-09-11T13:08:48.660Z,9.77
2022-09-11T13:13:52.380Z,10.00
2022-09-11T13:19:00.539Z,13.32
2022-09-11T13:24:22.286Z,11.68
2022-09-11T13:29:29.246Z,8.88
2022-09-11T13:34:36.483Z,8.80
2022-09-11T13:39:44.254Z,8.43
2022-09-11T13:44:50.240Z,9.60
2022-09-11T13:49:56.899Z,8.85
2022-09-11T13:55:04.780Z,9.02
2022-09-11T14:00:38.273Z,11.65
2022-09-11T14:05:50.366Z,7.18
2022-09-11T14:10:57.602Z,9.32
2022-09-11T14:16:04.439Z,7.03
2022-09-11T14:21:15.136Z,7.13
2022-09-11T14:26:22.204Z,7.53
2022-09-11T14:31:36.149Z,8.55
2022-09-11T14:36:42.209Z,7.93
2022-09-11T14:41:47.338Z,9.05
2022-09-11T14:46:50.978Z,6.38
2022-09-11T14:51:58.289Z,7.47
2022-09-11T14:57:03.225Z,7.97
2022-09-11T15:02:12.211Z,7.43
2022-09-11T15:07:17.380Z,9.13
2022-09-11T15:12:23.302Z,9.27
2022-09-11T15:17:30.533Z,7.45
2022-09-11T15:22:34.946Z,6.72
2022-09-11T15:27:39.808Z,8.70
2022-09-11T15:32:43.352Z,8.20
2022-09-11T15:37:47.706Z,9.18
2022-09-11T15:42:52.618Z,13.98
2022-09-11T15:47:56.126Z,7.75
2022-09-11T15:52:59.601Z,7.93
2022-09-11T15:58:04.895Z,6.55
2022-09-11T16:03:08.373Z,7.43
2022-09-11T16:08:13.066Z,6.85
2022-09-11T16:13:18.708Z,6.28
2022-09-11T16:18:22.292Z,6.45
2022-09-11T16:23:26.388Z,10.02
2022-09-11T16:28:31.811Z,8.93
2022-09-11T16:33:40.488Z,8.35
2022-09-11T16:38:44.579Z,7.45
2022-09-11T16:43:52.304Z,7.50
2022-09-11T16:49:01.491Z,6.25
2022-09-11T16:54:05.724Z,6.28
2022-09-11T16:59:11.199Z,8.90
2022-09-11T17:04:14.862Z,7.88
2022-09-11T17:09:18.432Z,6.88
2022-09-11T17:14:23.409Z,8.82
2022-09-11T17:19:27.128Z,7.57
2022-09-11T17:24:31.921Z,7.90
2022-09-11T17:29:39.217Z,5.97
2022-09-11T17:34:44.818Z,6.95
2022-09-11T17:39:48.492Z,7.10
2022-09-11T17:44:53.477Z,7.18
2022-09-11T17:49:57.472Z,8.73
2022-09-11T17:55:01.083Z,7.20
2022-09-11T18:00:07.338Z,9.00
2022-09-11T18:05:18.365Z,12.90
2022-09-11T18:10:25.016Z,7.90
2022-09-11T18:15:29.819Z,10.38
2022-09-11T18:20:36.230Z,12.27
2022-09-11T18:25:42.278Z,9.00
2022-09-11T18:30:47.563Z,8.35
2022-09-11T18:35:51.077Z,10.20
2022-09-11T18:41:00.117Z,11.45
2022-09-11T18:46:05.305Z,9.27
2022-09-11T18:51:10.117Z,13.43
2022-09-11T18:56:13.683Z,16.77
2022-09-11T19:01:20.148Z,13.63
2022-09-11T19:06:26.188Z,11.13
2022-09-11T19:11:32.263Z,11.60
2022-09-11T19:16:38.069Z,13.10
2022-09-11T19:21:41.880Z,13.05
2022-09-11T19:26:45.692Z,12.18
2022-09-11T19:31:52.760Z,12.25
2022-09-11T19:36:56.371Z,10.48
2022-09-11T19:42:00.402Z,15.93
2022-09-11T19:47:06.576Z,13.25
2022-09-11T19:52:11.779Z,12.45
2022-09-11T19:57:15.351Z,11.73
2022-09-11T20:02:20.282Z,17.23
2022-09-11T20:07:23.984Z,12.13
2022-09-11T20:12:31.318Z,15.90
2022-09-11T20:17:36.180Z,16.17
2022-09-11T20:22:39.833Z,15.82
2022-09-11T20:27:43.356Z,21.55
2022-09-11T20:32:48.251Z,15.88
2022-09-11T20:37:52.445Z,15.65
2022-09-11T20:42:56.076Z,20.13
2022-09-11T20:48:01.000Z,19.10
2022-09-11T20:53:04.570Z,22.83
2022-09-11T20:58:07.956Z,19.80
2022-09-11T21:03:13.206Z,17.83
2022-09-11T21:08:16.674Z,17.90
2022-09-11T21:13:20.096Z,19.73
2022-09-11T21:18:25.037Z,15.75
2022-09-11T21:23:28.878Z,17.90
2022-09-11T21:28:32.323Z,17.77
2022-09-11T21:33:37.767Z,16.80
2022-09-11T21:38:41.210Z,17.45
2022-09-11T21:43:44.978Z,18.33
2022-09-11T21:48:49.854Z,13.90
2022-09-11T21:53:58.197Z,15.45
2022-09-11T21:59:01.989Z,17.52
2022-09-11T22:04:06.921Z,15.70
2022-09-11T22:09:10.327Z,17.13
2022-09-11T22:14:18.915Z,20.50
2022-09-11T22:19:23.856Z,18.67
2022-09-11T22:24:27.312Z,20.65
2022-09-11T22:29:30.680Z,17.05
2022-09-11T22:34:37.108Z,19.27
2022-09-11T22:39:40.549Z,20.88
2022-09-11T22:44:44.102Z,23.00
2022-09-11T22:49:48.916Z,15.95
2022-09-11T22:54:52.367Z,18.20
2022-09-11T22:59:56.042Z,19.85
2022-09-11T23:05:14.741Z,21.63
2022-09-11T23:10:23.464Z,23.83
2022-09-11T23:15:27.041Z,27.55
2022-09-11T23:20:32.305Z,25.20
2022-09-11T23:25:36.184Z,22.77
2022-09-11T23:30:40.131Z,17.73
2022-09-11T23:35:44.998Z,19.05
2022-09-11T23:40:48.570Z,23.92
2022-09-11T23:45:52.057Z,14.80
2022-09-11T23:50:57.027Z,23.35
2022-09-11T23:56:00.443Z,21.73
